Time;durP1;ratioP1;P1;durP2;ratioP2;P2;SDS_P1;SDS_P2;PMS_P1;PMS_P2;Temp;Humidity;BMP_temperature;BMP_pressure;BME280_temperature;BME280_humidity;BME280_pressure;Samples;Min_cycle;Max_cycle;Signal;HPM_P1;HPM_P2
2021/12/05 00:23:07;;;;;;;7.93;3.95;;;4.50;99.90;;;;;;5061722;28;20603;-62
2021/12/05 00:25:33;;;;;;;7.03;4.13;;;4.50;99.90;;;;;;5059442;28;20235;-63
2021/12/05 01:06:19;;;;;;;12.50;4.35;;;4.40;99.90;;;;;;5064681;28;20521;-62
2021/12/05 01:13:55;;;;;;;18.60;4.38;;;4.40;99.90;;;;;;5063622;28;20151;-63
2021/12/05 01:16:22;;;;;;;9.10;3.78;;;4.50;99.90;;;;;;5063945;28;20041;-62
2021/12/05 01:18:47;;;;;;;8.75;4.32;;;4.50;99.90;;;;;;5062540;28;20044;-63
2021/12/05 01:21:18;;;;;;;9.35;4.18;;;4.50;99.90;;;;;;5067554;28;20417;-63
2021/12/05 01:23:57;;;;;;;8.25;4.90;;;4.50;99.90;;;;;;5066801;28;20036;-63
2021/12/05 01:26:37;;;;;;;10.68;4.55;;;4.50;99.90;;;;;;5063251;28;20170;-63
2021/12/05 01:29:33;;;;;;;7.95;3.40;;;4.50;99.90;;;;;;5064168;28;20803;-62
2021/12/05 01:37:58;;;;;;;12.20;4.85;;;4.60;99.90;;;;;;5030618;28;20055;-62
2021/12/05 01:40:40;;;;;;;9.60;4.68;;;4.60;99.90;;;;;;5067993;28;20040;-62
2021/12/05 01:51:27;;;;;;;8.27;4.15;;;4.50;99.90;;;;;;5066076;28;20052;-63
2021/12/05 01:56:41;;;;;;;11.57;5.20;;;4.50;99.90;;;;;;5063336;28;20040;-62
2021/12/05 02:32:04;;;;;;;10.88;4.75;;;4.50;99.90;;;;;;5063324;28;20048;-62
2021/12/05 02:37:33;;;;;;;15.65;6.18;;;;;;;;;;5061544;28;20083;-62
2021/12/05 02:42:34;;;;;;;9.35;5.25;;;4.40;99.90;;;;;;5064059;28;20040;-62
2021/12/05 02:45:04;;;;;;;8.02;5.35;;;4.40;99.90;;;;;;5061303;28;20084;-62
2021/12/05 02:47:31;;;;;;;8.88;5.57;;;4.40;99.90;;;;;;5064313;28;20094;-63
2021/12/05 02:49:59;;;;;;;10.95;6.53;;;4.40;99.90;;;;;;5062278;28;20050;-62
2021/12/05 02:52:32;;;;;;;10.75;5.80;;;4.40;99.90;;;;;;5062784;28;20047;-62
2021/12/05 02:55:11;;;;;;;14.93;7.57;;;4.40;99.90;;;;;;5064588;28;20052;-62
2021/12/05 03:00:12;;;;;;;15.25;6.80;;;4.30;99.90;;;;;;5061817;28;20044;-62
2021/12/05 03:02:41;;;;;;;15.40;7.07;;;4.30;99.90;;;;;;5063262;28;20052;-62
2021/12/05 03:05:12;;;;;;;14.38;7.20;;;4.30;99.90;;;;;;5063389;28;20040;-62
2021/12/05 03:07:39;;;;;;;15.43;7.13;;;4.30;99.90;;;;;;5063386;28;20421;-63
2021/12/05 03:10:06;;;;;;;13.52;6.97;;;4.30;99.90;;;;;;5064796;28;20036;-62
2021/12/05 03:12:34;;;;;;;15.55;6.75;;;4.30;99.90;;;;;;5062661;28;20131;-62
2021/12/05 03:15:07;;;;;;;17.33;7.50;;;4.30;99.90;;;;;;5064078;28;20047;-63
2021/12/05 03:17:32;;;;;;;13.90;6.53;;;4.30;99.90;;;;;;5063757;28;20180;-63
2021/12/05 03:19:58;;;;;;;10.20;6.78;;;4.30;99.90;;;;;;5062953;28;20735;-63
2021/12/05 03:22:24;;;;;;;15.43;8.38;;;4.30;99.90;;;;;;5063860;28;20086;-62
2021/12/05 03:24:50;;;;;;;12.10;7.32;;;4.30;99.90;;;;;;5063478;28;20028;-62
2021/12/05 03:27:16;;;;;;;11.70;6.85;;;4.30;99.90;;;;;;5062403;28;20047;-62
2021/12/05 03:29:42;;;;;;;11.40;8.00;;;4.30;99.90;;;;;;5063528;28;20032;-62
2021/12/05 03:32:08;;;;;;;13.43;7.60;;;4.30;99.90;;;;;;5064072;28;20047;-62
2021/12/05 03:34:34;;;;;;;14.25;7.50;;;4.30;99.90;;;;;;5059177;28;20035;-62
2021/12/05 03:37:01;;;;;;;12.23;7.18;;;4.30;99.90;;;;;;5065760;28;20481;-62
2021/12/05 03:39:28;;;;;;;19.77;7.75;;;4.30;99.90;;;;;;5060546;28;20032;-62
2021/12/05 03:41:55;;;;;;;14.15;7.88;;;4.30;99.90;;;;;;5060762;28;20036;-62
2021/12/05 03:44:24;;;;;;;18.40;7.78;;;4.30;99.90;;;;;;5071380;28;20415;-63
2021/12/05 03:46:53;;;;;;;14.65;7.75;;;4.30;99.90;;;;;;5065893;28;20155;-62
2021/12/05 03:49:19;;;;;;;10.15;6.47;;;4.20;99.90;;;;;;5061321;28;20131;-63
2021/12/05 03:52:05;;;;;;;17.58;8.30;;;4.30;99.90;;;;;;5064542;28;20064;-62
2021/12/05 03:54:31;;;;;;;16.33;8.05;;;4.20;99.90;;;;;;5062849;28;20119;-63
2021/12/05 03:56:59;;;;;;;18.30;8.15;;;4.20;99.90;;;;;;5059994;28;20115;-63
2021/12/05 03:59:28;;;;;;;17.13;8.88;;;4.20;99.90;;;;;;5063608;28;20070;-62
2021/12/05 04:01:55;;;;;;;18.98;8.35;;;4.20;99.90;;;;;;5064898;28;20044;-62
2021/12/05 04:04:21;;;;;;;15.20;7.63;;;4.20;99.90;;;;;;5062250;28;20110;-63
2021/12/05 04:06:48;;;;;;;14.98;9.05;;;4.20;99.90;;;;;;5066436;28;20036;-62
2021/12/05 04:09:15;;;;;;;15.93;9.10;;;4.20;99.90;;;;;;5063272;28;20067;-62
2021/12/05 04:11:46;;;;;;;11.60;8.80;;;4.20;99.90;;;;;;5059693;28;20044;-62
2021/12/05 04:14:14;;;;;;;14.95;9.55;;;4.20;99.90;;;;;;5065476;28;20251;-62
2021/12/05 04:16:42;;;;;;;18.38;8.77;;;4.20;99.90;;;;;;5066189;28;20052;-62
2021/12/05 04:19:10;;;;;;;15.45;9.35;;;4.20;99.90;;;;;;5066950;28;20036;-62
2021/12/05 04:21:38;;;;;;;22.20;10.05;;;4.10;99.90;;;;;;5066798;28;20047;-62
2021/12/05 04:24:06;;;;;;;17.60;9.95;;;4.10;99.90;;;;;;5066282;28;20048;-63
2021/12/05 04:26:33;;;;;;;15.77;8.50;;;4.10;99.90;;;;;;5055922;28;20075;-62
2021/12/05 04:28:59;;;;;;;14.95;9.00;;;4.10;99.90;;;;;;5067094;28;20043;-62
2021/12/05 04:31:24;;;;;;;20.77;9.98;;;4.10;99.90;;;;;;5061274;28;20052;-62
2021/12/05 04:33:51;;;;;;;18.05;10.02;;;4.10;99.90;;;;;;5063773;28;20032;-63
2021/12/05 04:36:17;;;;;;;18.00;10.52;;;4.10;99.90;;;;;;5063653;28;20079;-62
2021/12/05 04:38:43;;;;;;;26.98;10.50;;;4.00;99.90;;;;;;5062322;28;20032;-62
2021/12/05 04:41:09;;;;;;;14.88;9.38;;;4.00;99.90;;;;;;5063591;28;20043;-62
2021/12/05 04:43:38;;;;;;;22.33;11.98;;;4.10;99.90;;;;;;5065584;28;20398;-62
2021/12/05 04:46:07;;;;;;;16.88;8.73;;;;;;;;;;5062174;28;20046;-62
2021/12/05 04:48:33;;;;;;;21.38;10.82;;;;;;;;;;5069441;28;20040;-62
2021/12/05 04:51:00;;;;;;;18.15;10.25;;;;;;;;;;5063594;28;20647;-62
2021/12/05 04:53:27;;;;;;;19.52;11.80;;;;;;;;;;5059697;28;20044;-62
2021/12/05 04:55:54;;;;;;;22.38;11.05;;;;;;;;;;5072642;28;20037;-62
2021/12/05 04:58:20;;;;;;;24.90;11.00;;;;;;;;;;5069113;28;20102;-62
2021/12/05 05:00:47;;;;;;;17.80;10.70;;;;;;;;;;5064792;28;20033;-62
2021/12/05 05:03:13;;;;;;;25.08;11.02;;;;;;;;;;5067821;28;20037;-62
2021/12/05 05:05:46;;;;;;;22.10;10.65;;;;;;;;;;5066435;28;20086;-62
2021/12/05 05:08:12;;;;;;;23.10;12.80;;;;;;;;;;5066787;28;20032;-62
2021/12/05 05:10:38;;;;;;;25.13;11.15;;;;;;;;;;5068468;28;20055;-62
2021/12/05 05:13:05;;;;;;;21.13;11.95;;;;;;;;;;5070240;28;20082;-62
2021/12/05 05:15:31;;;;;;;23.58;12.05;;;;;;;;;;5066147;28;20164;-62
2021/12/05 05:17:58;;;;;;;25.48;12.45;;;;;;;;;;5064437;28;20045;-62
2021/12/05 05:42:19;;;;;;;23.40;12.38;;;;;;;;;;5058968;28;20094;-62
2021/12/05 05:51:58;;;;;;;22.95;11.98;;;;;;;;;;5066442;28;20045;-62
2021/12/05 05:54:24;;;;;;;20.17;11.10;;;;;;;;;;5063843;28;20041;-62
2021/12/05 05:56:56;;;;;;;19.98;11.13;;;;;;;;;;5067696;28;20048;-62
2021/12/05 05:59:31;;;;;;;21.58;11.52;;;;;;;;;;5064151;28;20559;-62
2021/12/05 06:03:21;;;;;;;21.08;12.07;;;;;;;;;;5062320;28;20048;-63
2021/12/05 06:04:46;;;;;;;21.00;10.80;;;;;;;;;;5064521;28;20044;-62
2021/12/05 06:07:15;;;;;;;20.27;11.88;;;;;;;;;;5067954;28;20437;-62
2021/12/05 06:09:41;;;;;;;21.33;11.10;;;;;;;;;;5066154;28;20052;-62
2021/12/05 06:12:07;;;;;;;23.48;10.77;;;;;;;;;;5064669;28;20041;-62
2021/12/05 06:14:33;;;;;;;19.60;10.65;;;;;;;;;;5067245;28;20040;-62
2021/12/05 06:16:59;;;;;;;20.98;11.27;;;;;;;;;;5062982;28;20448;-62
2021/12/05 06:19:25;;;;;;;16.90;11.07;;;;;;;;;;5059511;28;20041;-62
2021/12/05 06:21:51;;;;;;;18.48;10.70;;;;;;;;;;5067788;28;20418;-62
2021/12/05 06:24:18;;;;;;;17.27;11.73;;;;;;;;;;5064446;28;20117;-62
2021/12/05 06:26:44;;;;;;;19.83;10.60;;;;;;;;;;5066359;28;20067;-63
2021/12/05 06:29:17;;;;;;;18.35;9.85;;;;;;;;;;5065688;28;20414;-62
2021/12/05 06:37:25;;;;;;;17.80;11.60;;;;;;;;;;5063542;28;20442;-62
2021/12/05 06:47:42;;;;;;;15.98;9.60;;;;;;;;;;5065179;28;20119;-62
2021/12/05 06:50:08;;;;;;;19.00;9.85;;;;;;;;;;5062974;28;20049;-63
2021/12/05 06:52:34;;;;;;;19.55;10.57;;;;;;;;;;5065708;28;20036;-62
2021/12/05 06:55:00;;;;;;;14.27;9.57;;;;;;;;;;5059932;28;20135;-62
2021/12/05 06:57:26;;;;;;;14.82;9.48;;;;;;;;;;5051639;28;20591;-62
2021/12/05 06:59:53;;;;;;;15.65;9.73;;;;;;;;;;5059574;28;20043;-63
2021/12/05 07:02:20;;;;;;;21.35;10.48;;;;;;;;;;5053540;28;20167;-62
2021/12/05 07:05:11;;;;;;;15.23;9.63;;;;;;;;;;5051097;28;20044;-63
2021/12/05 07:07:41;;;;;;;16.33;9.20;;;;;;;;;;5056078;28;20036;-62
2021/12/05 07:10:08;;;;;;;18.27;10.73;;;;;;;;;;5060669;28;20045;-62
2021/12/05 07:21:00;;;;;;;16.63;9.70;;;;;;;;;;5050407;28;20055;-62
2021/12/05 07:26:18;;;;;;;14.98;8.90;;;;;;;;;;5062906;28;20070;-62
2021/12/05 07:42:43;;;;;;;15.05;8.90;;;;;;;;;;5052680;28;20040;-62
2021/12/05 07:45:12;;;;;;;21.40;10.82;;;;;;;;;;5056295;28;20040;-62
2021/12/05 07:47:43;;;;;;;22.35;8.48;;;;;;;;;;5057352;28;20616;-62
2021/12/05 07:50:11;;;;;;;19.80;9.35;;;;;;;;;;5060564;28;20387;-62
2021/12/05 07:52:43;;;;;;;28.67;8.32;;;;;;;;;;5056526;28;20079;-62
2021/12/05 07:58:06;;;;;;;17.73;8.15;;;;;;;;;;5042057;28;20052;-62
2021/12/05 08:00:44;;;;;;;17.65;8.23;;;;;;;;;;5057768;28;20505;-62
2021/12/05 08:16:50;;;;;;;31.10;10.32;;;;;;;;;;5057855;28;20500;-62
2021/12/05 08:19:18;;;;;;;17.05;8.32;;;;;;;;;;5056203;28;20129;-62
2021/12/05 08:21:45;;;;;;;15.55;8.20;;;;;;;;;;5058401;28;20131;-62
2021/12/05 08:24:11;;;;;;;19.00;8.57;;;;;;;;;;5061960;28;20048;-62
2021/12/05 08:26:38;;;;;;;21.27;8.77;;;;;;;;;;5056817;28;20158;-62
2021/12/05 08:34:29;;;;;;;16.95;8.52;;;;;;;;;;5059755;28;20049;-62
2021/12/05 09:39:34;;;;;;;22.15;10.88;;;;;;;;;;5074033;28;20097;-71
2021/12/05 10:07:05;;;;;;;19.40;11.05;;;;;;;;;;5051408;28;20530;-71
2021/12/05 10:15:17;;;;;;;19.23;10.93;;;;;;;;;;5067800;28;20084;-72
2021/12/05 10:37:47;;;;;;;19.08;9.73;;;;;;;;;;5069982;28;20080;-70
2021/12/05 10:40:16;;;;;;;20.30;11.00;;;;;;;;;;5064926;28;20054;-70
2021/12/05 10:42:44;;;;;;;17.92;12.82;;;;;;;;;;5094988;27;20127;-70
2021/12/05 10:45:19;;;;;;;17.80;10.48;;;;;;;;;;5063967;28;20048;-71
2021/12/05 10:47:51;;;;;;;21.50;10.52;;;;;;;;;;5065047;28;20044;-71
2021/12/05 10:50:33;;;;;;;18.35;11.20;;;;;;;;;;5065511;28;20047;-71
2021/12/05 10:53:18;;;;;;;21.77;10.20;;;;;;;;;;5069823;28;20110;-71
2021/12/05 10:55:44;;;;;;;24.17;11.93;;;;;;;;;;5053203;28;20045;-70
2021/12/05 10:58:10;;;;;;;21.02;11.82;;;;;;;;;;5065910;28;20037;-71
2021/12/05 11:00:37;;;;;;;19.75;10.30;;;;;;;;;;5070565;28;20650;-71
2021/12/05 11:03:16;;;;;;;17.02;10.65;;;;;;;;;;5064649;28;20051;-71
2021/12/05 11:05:43;;;;;;;14.48;9.68;;;;;;;;;;5062171;28;20372;-71
2021/12/05 11:08:29;;;;;;;18.13;9.82;;;;;;;;;;5071741;28;20486;-71
2021/12/05 11:11:10;;;;;;;15.57;9.27;;;;;;;;;;5068001;28;20036;-71
2021/12/05 11:13:37;;;;;;;15.30;9.35;;;;;;;;;;5060533;28;20474;-71
2021/12/05 11:16:05;;;;;;;18.17;10.43;;;;;;;;;;5070766;28;20111;-70
2021/12/05 11:18:41;;;;;;;15.95;9.18;;;;;;;;;;5066810;28;20448;-71
2021/12/05 11:21:30;;;;;;;16.30;10.57;;;;;;;;;;5045611;28;20055;-71
2021/12/05 11:24:05;;;;;;;16.50;9.48;;;;;;;;;;5065201;28;20128;-71
2021/12/05 11:26:32;;;;;;;16.92;9.70;;;;;;;;;;5066360;28;20032;-71
2021/12/05 11:28:58;;;;;;;17.50;10.68;;;;;;;;;;5068589;28;20106;-71
2021/12/05 11:31:26;;;;;;;15.70;9.45;;;;;;;;;;5064195;28;20044;-71
2021/12/05 11:33:55;;;;;;;17.00;10.60;;;;;;;;;;5098420;28;20051;-71
2021/12/05 11:36:25;;;;;;;15.52;9.98;;;;;;;;;;5068403;28;20212;-71
2021/12/05 11:38:52;;;;;;;17.75;9.23;;;;;;;;;;5063321;28;20075;-71
2021/12/05 11:41:23;;;;;;;18.50;9.95;;;;;;;;;;5066956;28;20046;-71
2021/12/05 11:43:54;;;;;;;20.27;11.00;;;;;;;;;;5061926;28;20102;-70
2021/12/05 11:46:22;;;;;;;16.13;9.07;;;;;;;;;;5101128;27;20048;-71
2021/12/05 11:48:48;;;;;;;15.68;10.48;;;;;;;;;;5066387;28;20470;-70
2021/12/05 11:51:17;;;;;;;18.55;9.75;;;;;;;;;;5064644;28;20135;-70
2021/12/05 11:53:46;;;;;;;26.10;11.88;;;;;;;;;;5065698;28;20053;-71
2021/12/05 11:56:16;;;;;;;18.83;10.32;;;;;;;;;;5063619;28;20040;-71
2021/12/05 11:58:44;;;;;;;18.92;10.95;;;;;;;;;;5067392;28;20083;-71
2021/12/05 12:01:11;;;;;;;15.77;9.40;;;;;;;;;;5065473;28;20079;-71
2021/12/05 12:03:38;;;;;;;20.40;9.93;;;;;;;;;;5062251;28;20095;-71
2021/12/05 12:06:05;;;;;;;21.70;9.48;;;;;;;;;;5065935;28;20045;-71
2021/12/05 12:08:31;;;;;;;18.02;9.95;;;;;;;;;;5069023;28;20094;-71
2021/12/05 12:11:00;;;;;;;14.55;8.65;;;;;;;;;;5069128;28;20046;-71
2021/12/05 12:13:29;;;;;;;19.52;9.27;;;;;;;;;;5038856;28;20421;-71
2021/12/05 12:16:02;;;;;;;18.40;10.32;;;;;;;;;;5062750;28;20067;-71
2021/12/05 12:18:32;;;;;;;17.33;9.13;;;;;;;;;;5091262;28;20047;-71
2021/12/05 12:21:02;;;;;;;17.48;9.45;;;;;;;;;;5068251;28;20498;-71
2021/12/05 12:23:28;;;;;;;14.80;8.85;;;;;;;;;;5064454;28;20036;-71
2021/12/05 12:25:56;;;;;;;16.77;10.00;;;;;;;;;;5071136;28;20052;-71
2021/12/05 12:28:22;;;;;;;15.93;9.20;;;;;;;;;;5071035;28;20048;-71
2021/12/05 12:30:55;;;;;;;18.50;10.88;;;;;;;;;;5069897;28;20497;-71
2021/12/05 12:33:22;;;;;;;18.33;10.70;;;;;;;;;;5078707;28;20510;-71
2021/12/05 12:35:49;;;;;;;19.85;9.88;;;;;;;;;;5065808;28;20532;-71
2021/12/05 12:38:22;;;;;;;19.15;10.55;;;;;;;;;;5070693;28;20170;-71
2021/12/05 12:40:53;;;;;;;16.15;10.25;;;;;;;;;;5068263;28;20094;-71
2021/12/05 12:43:35;;;;;;;18.42;9.38;;;;;;;;;;5068073;28;20125;-71
2021/12/05 12:46:21;;;;;;;17.08;9.35;;;;;;;;;;5068782;28;20085;-70
2021/12/05 12:48:48;;;;;;;19.30;10.85;;;;;;;;;;5069238;28;20076;-71
2021/12/05 12:51:32;;;;;;;16.48;9.85;;;;;;;;;;5069862;28;20094;-71
2021/12/05 12:54:01;;;;;;;15.07;9.77;;;;;;;;;;5066144;28;20105;-71
2021/12/05 12:56:27;;;;;;;15.80;9.65;;;;;;;;;;5070177;28;20033;-71
2021/12/05 12:59:00;;;;;;;17.70;10.18;;;;;;;;;;5070019;28;20601;-71
2021/12/05 13:02:02;;;;;;;14.02;8.25;;;;;;;;;;5051456;28;20963;-71
2021/12/05 13:07:23;;;;;;;15.40;9.85;;;;;;;;;;5070469;28;20091;-71
2021/12/05 13:10:11;;;;;;;15.00;9.50;;;;;;;;;;5069330;28;20058;-70
2021/12/05 13:12:40;;;;;;;19.95;9.75;;;;;;;;;;5068406;28;20045;-71
2021/12/05 13:15:09;;;;;;;18.17;8.85;;;4.00;99.90;;;;;;5063133;28;20033;-71
2021/12/05 13:17:40;;;;;;;16.10;9.82;;;4.90;99.90;;;;;;5071874;28;20378;-71
2021/12/05 13:20:07;;;;;;;13.40;7.40;;;4.90;99.90;;;;;;5073088;28;20414;-71
2021/12/05 13:22:33;;;;;;;19.00;10.13;;;4.90;99.90;;;;;;5071188;28;20039;-71
2021/12/05 13:25:06;;;;;;;15.55;9.00;;;4.90;99.90;;;;;;5073624;28;20045;-71
2021/12/05 13:27:32;;;;;;;15.23;9.55;;;4.90;99.90;;;;;;5072407;28;20040;-71
2021/12/05 13:29:59;;;;;;;14.00;7.90;;;4.90;99.90;;;;;;5081469;28;20459;-71
2021/12/05 13:32:30;;;;;;;19.15;8.85;;;4.90;99.90;;;;;;5055818;28;20048;-71
2021/12/05 13:35:05;;;;;;;12.23;8.05;;;4.90;99.90;;;;;;5073007;28;20032;-71
2021/12/05 13:37:37;;;;;;;15.63;8.25;;;4.90;99.90;;;;;;5054362;28;20063;-71
2021/12/05 13:40:12;;;;;;;11.15;8.23;;;4.90;99.90;;;;;;5072994;28;20037;-71
2021/12/05 13:42:46;;;;;;;16.10;8.48;;;4.90;99.90;;;;;;5054292;28;20086;-71
2021/12/05 13:45:27;;;;;;;18.52;9.65;;;5.00;99.90;;;;;;5072929;28;20037;-71
2021/12/05 13:47:53;;;;;;;14.95;9.80;;;5.00;99.90;;;;;;5064929;28;20515;-71
2021/12/05 13:50:18;;;;;;;18.27;9.20;;;4.90;99.90;;;;;;5055141;28;20120;-71
2021/12/05 13:53:01;;;;;;;17.00;9.35;;;5.00;99.90;;;;;;5073135;28;20040;-71
2021/12/05 13:55:49;;;;;;;17.00;9.98;;;5.00;99.90;;;;;;5071492;28;20082;-71
2021/12/05 13:58:34;;;;;;;18.30;8.80;;;5.00;99.90;;;;;;5072774;28;20041;-71
2021/12/05 14:01:15;;;;;;;11.13;7.97;;;5.00;99.90;;;;;;5071712;28;20150;-71
2021/12/05 14:03:49;;;;;;;15.57;8.68;;;5.00;99.90;;;;;;5072672;28;20181;-71
2021/12/05 14:06:37;;;;;;;10.45;8.05;;;5.00;99.90;;;;;;5071117;28;20502;-71
2021/12/05 14:09:14;;;;;;;16.48;8.82;;;5.00;99.90;;;;;;5070159;28;20056;-71
2021/12/05 14:11:45;;;;;;;10.68;7.63;;;5.00;99.90;;;;;;5069415;28;20111;-71
2021/12/05 14:14:11;;;;;;;16.25;8.77;;;5.00;99.90;;;;;;5075657;28;20131;-71
2021/12/05 14:16:40;;;;;;;13.00;8.32;;;5.00;99.90;;;;;;5068201;28;20053;-71
2021/12/05 14:19:10;;;;;;;13.93;9.55;;;5.00;99.90;;;;;;5069508;28;20036;-71
2021/12/05 14:21:50;;;;;;;13.88;8.48;;;5.00;99.90;;;;;;5071788;28;20119;-71
2021/12/05 14:24:19;;;;;;;12.68;8.35;;;5.00;99.90;;;;;;5071018;28;20044;-71
2021/12/05 14:26:48;;;;;;;14.60;8.55;;;5.00;99.90;;;;;;5061387;28;20071;-71
2021/12/05 14:29:18;;;;;;;15.85;8.80;;;5.00;99.90;;;;;;5086795;28;20502;-71
2021/12/05 14:31:50;;;;;;;13.60;8.10;;;5.00;99.90;;;;;;5068582;28;20058;-71
2021/12/05 14:34:16;;;;;;;15.90;9.55;;;5.00;99.90;;;;;;5097096;27;20040;-71
2021/12/05 14:36:50;;;;;;;13.23;10.80;;;5.00;99.90;;;;;;5072357;28;20045;-71
2021/12/05 14:39:29;;;;;;;12.00;9.15;;;5.00;99.90;;;;;;5068854;28;20028;-71
2021/12/05 14:41:59;;;;;;;12.57;7.93;;;5.00;99.90;;;;;;5078799;28;20070;-71
2021/12/05 14:44:25;;;;;;;16.95;9.85;;;5.00;99.90;;;;;;5072526;28;20047;-71
2021/12/05 14:46:59;;;;;;;17.60;8.90;;;5.00;99.90;;;;;;5053593;28;20079;-71
2021/12/05 14:49:28;;;;;;;13.85;10.10;;;5.00;99.90;;;;;;5062311;28;20070;-71
2021/12/05 14:51:55;;;;;;;15.65;9.07;;;5.00;99.90;;;;;;5072077;28;20044;-71
2021/12/05 14:54:32;;;;;;;14.93;9.27;;;5.00;99.90;;;;;;5067451;28;20047;-71
2021/12/05 14:56:59;;;;;;;16.50;10.35;;;5.00;99.90;;;;;;5077875;28;20040;-71
2021/12/05 14:59:25;;;;;;;14.38;8.35;;;5.00;99.90;;;;;;5066949;28;20170;-71
2021/12/05 15:01:59;;;;;;;17.90;11.27;;;5.00;99.90;;;;;;5067298;28;20067;-71
2021/12/05 15:04:30;;;;;;;19.80;14.70;;;5.00;99.90;;;;;;5078541;28;20448;-71
2021/12/05 15:06:58;;;;;;;18.27;10.65;;;5.00;99.90;;;;;;5063676;28;20083;-71
2021/12/05 15:09:31;;;;;;;21.80;11.48;;;5.00;99.90;;;;;;5070126;28;20060;-71
2021/12/05 15:12:13;;;;;;;23.52;14.38;;;5.00;99.90;;;;;;5074952;28;20517;-71
2021/12/05 15:14:43;;;;;;;21.55;12.43;;;5.00;99.90;;;;;;5068742;28;20264;-71
2021/12/05 15:17:19;;;;;;;27.00;15.65;;;5.00;99.90;;;;;;5070146;28;20128;-71
2021/12/05 15:19:56;;;;;;;18.52;11.68;;;5.00;99.90;;;;;;5068787;28;20410;-71
2021/12/05 15:22:23;;;;;;;19.60;11.20;;;5.00;99.90;;;;;;5072872;28;20124;-71
2021/12/05 15:24:50;;;;;;;20.02;12.27;;;5.00;99.90;;;;;;5069658;28;20040;-71
2021/12/05 15:27:19;;;;;;;19.35;12.05;;;5.00;99.90;;;;;;5063695;28;20040;-71
2021/12/05 15:29:50;;;;;;;19.20;10.55;;;5.00;99.90;;;;;;5077221;28;20074;-71
2021/12/05 15:32:25;;;;;;;19.73;10.80;;;5.00;99.90;;;;;;5064881;28;20044;-71
2021/12/05 15:34:53;;;;;;;21.95;11.15;;;5.00;99.90;;;;;;5066623;28;20098;-71
2021/12/05 15:37:19;;;;;;;20.02;10.25;;;5.00;99.90;;;;;;5071469;28;20439;-71
2021/12/05 15:39:48;;;;;;;14.77;10.25;;;5.00;99.90;;;;;;5071906;28;20120;-71
2021/12/05 15:42:25;;;;;;;19.70;9.98;;;5.00;99.90;;;;;;5069566;28;20040;-71
2021/12/05 15:44:54;;;;;;;25.50;11.75;;;5.00;99.90;;;;;;5071536;28;20036;-71
2021/12/05 15:47:28;;;;;;;16.15;11.43;;;5.00;99.90;;;;;;5068661;28;20082;-71
2021/12/05 15:50:18;;;;;;;20.13;12.20;;;5.00;99.90;;;;;;5082642;28;20401;-71
2021/12/05 15:52:54;;;;;;;19.05;12.00;;;4.90;99.90;;;;;;5075772;28;20422;-71
2021/12/05 15:55:40;;;;;;;17.92;11.40;;;4.90;99.90;;;;;;5072293;28;20032;-71
2021/12/05 15:58:20;;;;;;;18.13;10.63;;;5.00;99.90;;;;;;5070211;28;20040;-71
2021/12/05 16:00:54;;;;;;;18.55;11.38;;;5.00;99.90;;;;;;5069442;28;20059;-71
2021/12/05 16:03:25;;;;;;;15.98;9.95;;;4.90;99.90;;;;;;5069571;28;20041;-71
2021/12/05 16:05:56;;;;;;;25.83;11.90;;;4.90;99.90;;;;;;5066601;28;20039;-71
2021/12/05 16:08:22;;;;;;;18.20;11.50;;;4.90;99.90;;;;;;5071726;28;20119;-71
2021/12/05 16:10:57;;;;;;;17.83;10.85;;;4.90;99.90;;;;;;5069678;28;20447;-71
2021/12/05 16:13:28;;;;;;;19.95;11.27;;;4.90;99.90;;;;;;5066783;28;20410;-71
2021/12/05 16:16:05;;;;;;;19.75;11.95;;;4.90;99.90;;;;;;5074145;28;20076;-71
2021/12/05 16:18:34;;;;;;;19.85;13.30;;;4.90;99.90;;;;;;5070435;28;20098;-71
2021/12/05 16:21:06;;;;;;;21.08;13.00;;;4.90;99.90;;;;;;5069445;28;20049;-71
2021/12/05 16:23:35;;;;;;;18.05;11.65;;;4.90;99.90;;;;;;5070863;28;20045;-71
2021/12/05 16:26:21;;;;;;;22.08;14.35;;;4.90;99.90;;;;;;5069967;28;20051;-71
2021/12/05 16:29:00;;;;;;;19.73;11.93;;;4.90;99.90;;;;;;5068279;28;20037;-71
2021/12/05 16:31:36;;;;;;;18.63;11.32;;;4.90;99.90;;;;;;5059370;28;20040;-71
2021/12/05 16:34:08;;;;;;;21.17;11.68;;;4.90;99.90;;;;;;5071081;28;20053;-71
2021/12/05 16:36:47;;;;;;;23.92;12.25;;;4.90;99.90;;;;;;5101469;28;20414;-71
2021/12/05 16:39:17;;;;;;;19.83;12.95;;;4.90;99.90;;;;;;5065811;28;20094;-71
2021/12/05 16:41:48;;;;;;;21.48;12.70;;;4.90;99.90;;;;;;5052613;28;20040;-71
2021/12/05 16:44:20;;;;;;;25.17;12.60;;;4.90;99.90;;;;;;5064085;28;20131;-71
2021/12/05 16:46:52;;;;;;;24.88;13.30;;;4.90;99.90;;;;;;5066949;28;20591;-71
2021/12/05 16:49:22;;;;;;;26.23;14.40;;;4.90;99.90;;;;;;5071190;28;20527;-71
2021/12/05 16:51:53;;;;;;;23.23;12.65;;;4.90;99.90;;;;;;5072838;28;20032;-71
2021/12/05 16:54:24;;;;;;;24.45;13.65;;;4.90;99.90;;;;;;5097132;28;20397;-71
2021/12/05 16:57:01;;;;;;;21.20;12.52;;;4.90;99.90;;;;;;5074814;28;20389;-71
2021/12/05 16:59:48;;;;;;;26.17;12.60;;;4.90;99.90;;;;;;5070441;28;20045;-71
2021/12/05 17:02:24;;;;;;;21.77;13.52;;;4.90;99.90;;;;;;5063692;28;20040;-71
2021/12/05 17:05:03;;;;;;;24.65;12.98;;;4.90;99.90;;;;;;5071283;28;20375;-71
2021/12/05 17:07:49;;;;;;;25.15;14.73;;;4.90;99.90;;;;;;5073394;28;20045;-71
2021/12/05 17:10:24;;;;;;;24.92;13.48;;;4.90;99.90;;;;;;5070221;28;20040;-71
2021/12/05 17:12:57;;;;;;;25.42;13.40;;;4.80;99.90;;;;;;5073252;28;20047;-71
2021/12/05 17:15:25;;;;;;;25.52;15.05;;;4.90;99.90;;;;;;5069698;28;20102;-71
2021/12/05 17:17:53;;;;;;;26.15;13.35;;;4.90;99.90;;;;;;5068452;28;20044;-71
2021/12/05 17:20:32;;;;;;;21.52;14.50;;;4.80;99.90;;;;;;5073449;28;20569;-71
2021/12/05 17:23:08;;;;;;;25.98;14.77;;;4.90;99.90;;;;;;5072420;28;20105;-71
2021/12/05 17:25:46;;;;;;;24.83;14.07;;;4.90;99.90;;;;;;5071127;28;20040;-71
2021/12/05 17:28:16;;;;;;;28.25;15.30;;;4.80;99.90;;;;;;5076537;28;20040;-71
2021/12/05 17:30:56;;;;;;;26.92;16.05;;;4.80;99.90;;;;;;5070548;28;20043;-71
2021/12/05 17:33:33;;;;;;;24.90;15.73;;;4.80;99.90;;;;;;5072246;28;20040;-71
2021/12/05 17:36:12;;;;;;;27.30;16.45;;;4.80;99.90;;;;;;5071115;28;20032;-71
2021/12/05 17:38:38;;;;;;;29.08;17.92;;;4.80;99.90;;;;;;5071659;28;20040;-71
2021/12/05 17:41:04;;;;;;;29.00;16.88;;;4.80;99.90;;;;;;5069840;28;20427;-71
2021/12/05 17:43:30;;;;;;;28.15;17.52;;;4.80;99.90;;;;;;5067370;28;20071;-71
2021/12/05 17:45:56;;;;;;;29.42;17.30;;;4.80;99.90;;;;;;5074725;28;20044;-71
2021/12/05 17:48:23;;;;;;;30.48;18.20;;;4.80;99.90;;;;;;5070158;28;20048;-71
2021/12/05 17:50:53;;;;;;;29.65;15.95;;;4.80;99.90;;;;;;5082836;28;20068;-71
2021/12/05 17:53:19;;;;;;;27.63;18.08;;;4.80;99.90;;;;;;5060949;28;20471;-71
2021/12/05 17:55:48;;;;;;;26.45;16.20;;;4.80;99.90;;;;;;5062913;28;20033;-71
2021/12/05 17:58:38;;;;;;;26.20;15.80;;;4.80;99.90;;;;;;5058440;28;20032;-71
2021/12/05 18:03:52;;;;;;;30.42;14.70;;;4.70;99.90;;;;;;5058356;28;20063;-71
2021/12/05 18:06:19;;;;;;;25.20;15.43;;;4.70;99.90;;;;;;5064124;28;20047;-71
2021/12/05 18:08:45;;;;;;;29.95;14.98;;;4.70;99.90;;;;;;5102970;27;20086;-71
2021/12/05 18:11:15;;;;;;;27.92;16.85;;;4.70;99.90;;;;;;5069815;28;20064;-71
2021/12/05 18:13:44;;;;;;;28.77;16.65;;;4.70;99.90;;;;;;5061762;28;20481;-71
2021/12/05 18:16:15;;;;;;;22.63;15.65;;;4.70;99.90;;;;;;5066359;28;20041;-72
2021/12/05 18:18:42;;;;;;;19.13;14.05;;;4.70;99.90;;;;;;5065807;28;20409;-71
2021/12/05 18:21:11;;;;;;;21.25;12.60;;;4.70;99.90;;;;;;5061901;28;20105;-71
2021/12/05 18:23:38;;;;;;;20.02;13.02;;;4.70;99.90;;;;;;5064008;28;20123;-71
2021/12/05 18:26:05;;;;;;;18.23;13.10;;;4.60;99.90;;;;;;5063029;28;20539;-71
2021/12/05 18:28:32;;;;;;;20.33;13.48;;;4.60;99.90;;;;;;5062684;28;20047;-71
2021/12/05 18:30:59;;;;;;;19.95;13.02;;;4.60;99.90;;;;;;5099809;27;20046;-71
2021/12/05 18:33:29;;;;;;;21.92;13.88;;;4.60;99.90;;;;;;5065177;28;20447;-71
2021/12/05 18:35:55;;;;;;;22.55;14.68;;;4.60;99.90;;;;;;5070136;28;20556;-71
2021/12/05 18:38:23;;;;;;;22.55;13.35;;;4.60;99.90;;;;;;5065180;28;20402;-71
2021/12/05 18:40:52;;;;;;;25.50;14.75;;;4.60;99.90;;;;;;5060642;28;20509;-71
2021/12/05 18:43:22;;;;;;;22.25;13.93;;;4.60;99.90;;;;;;5063141;28;20051;-71
2021/12/05 18:45:48;;;;;;;21.13;13.27;;;4.50;99.90;;;;;;5065517;28;20062;-71
2021/12/05 18:48:14;;;;;;;24.40;14.48;;;4.50;99.90;;;;;;5060209;28;20036;-71
2021/12/05 18:50:42;;;;;;;21.33;14.20;;;4.50;99.90;;;;;;5065390;28;20504;-71
2021/12/05 18:53:10;;;;;;;21.63;13.48;;;4.50;99.90;;;;;;5067650;28;20040;-71
2021/12/05 18:55:36;;;;;;;20.75;13.32;;;4.50;99.90;;;;;;5064848;28;20500;-71
2021/12/05 18:58:08;;;;;;;18.17;12.10;;;4.50;99.90;;;;;;5066984;28;20075;-71
2021/12/05 19:06:11;;;;;;;18.50;13.32;;;4.40;99.90;;;;;;5068261;28;20490;-71
2021/12/05 19:09:02;;;;;;;24.73;14.68;;;4.40;99.90;;;;;;5069304;28;20070;-71
2021/12/05 19:11:58;;;;;;;20.55;13.85;;;4.40;99.90;;;;;;5065410;28;20067;-71
2021/12/05 19:14:21;;;;;;;17.83;13.18;;;4.40;99.90;;;;;;5062758;28;20439;-71